x

West Washington - 300nm West Of Aberdeen, Wa (46005) Wave Buoy

2:50pm - Thu 3rd Sep 2015 All times are UTC.

  • Sig Wave height 7.9ft
  • Swell Direction
  • Peak Period 11s
  • Average Period 7s
  • Wind
    22mph, 27mph gusts
  • Sea Temp 65°f
  • Air Temp 60°f
  • Sea Pressure 1018.2mb

More Historic Weather Station data

Upgrade to MSW Pro to gain access to the past 30 days of data for over 8000 Wavebouys and Weather Stations around the globe.

Join Pro

Comparision Forecast

View Surf forecast
   
Thu 09/03 2:50pm 8ft 11s 7s 22 27 mph 1018.2mb 65f 60f
1:50pm 7ft 9s 7s 16 20 mph 1017.9mb 65f 62f
12:50pm 7.5ft 10s 7s 16 20 mph 1017.8mb 65f 62f
11:50am 8ft 11s 7s 16 18 mph 1017.8mb 65f 62f
10:50am 8ft 10s 7s 11 13 mph 1017.9mb 65f 61f
9:50am 8.5ft 10s 7s 13 16 mph 1017.8mb 65f 61f
8:50am 9ft 11s 8s 13 16 mph 1018mb 65f 61f
7:50am 9ft 11s 7s 11 16 mph 1018mb 65f 62f
6:50am 8ft 9s 7s 13 16 mph 1018.1mb 65f 61f
5:50am 9ft 11s 8s 18 22 mph 1018.1mb 65f 61f
4:50am 9.5ft 11s 8s 13 18 mph 1017.9mb 65f 62f
3:50am 10ft 11s 8s 16 20 mph 1017.4mb 65f 62f
2:50am 9.5ft 11s 8s 16 18 mph 1017.2mb 65f 62f
1:50am 9ft 11s 7s 16 18 mph 1017.1mb 65f 63f
12:50am 10ft 11s 8s 11 16 mph 1017.1mb 65f 61f
Wed 09/02 11:50pm 9ft 12s 8s 16 20 mph 1016.7mb 65f 63f
10:50pm 10ft 11s 8s 13 18 mph 1016.4mb 65f 63f
9:50pm 10ft 12s 8s 13 18 mph 1016.2mb 65f 62f
8:50pm 11.5ft 12s 8s 13 20 mph 1015.9mb 65f 62f
7:50pm 11.5ft 11s 8s 16 20 mph 1015.9mb 65f 62f
6:50pm 11.5ft 12s 8s 11 13 mph 1015.8mb 65f 62f
5:50pm 12ft 11s 8s 16 20 mph 1015.2mb 65f 62f
4:50pm 13ft 11s 8s 18 20 mph 1014.7mb 65f 62f
3:50pm 13ft 11s 8s 18 22 mph 1014.2mb 65f 62f
2:50pm 13ft 11s 8s 20 25 mph 1013.8mb 65f 62f
1:50pm 12ft 11s 8s 20 25 mph 1013.2mb 65f 62f
12:50pm 11ft 12s 8s 20 25 mph 1013mb 65f 62f
11:50am 10.5ft 11s 7s 20 25 mph 1012.6mb 65f 62f
10:50am 11ft 12s 7s 22 27 mph 1012.3mb 65f 62f
9:50am 11ft 12s 8s 22 27 mph 1012.3mb 65f 62f
8:50am 12ft 12s 8s 22 27 mph 1012.4mb 65f 62f
7:50am 12ft 11s 8s 22 27 mph 1012.4mb 65f 62f
6:50am 10.5ft 11s 7s 20 25 mph 1012.3mb 65f 62f
5:50am 11ft 11s 7s 22 25 mph 1012.3mb 65f 62f
4:50am 12ft 11s 8s 22 29 mph 1012.2mb 65f 62f
3:50am 11ft 11s 8s 22 29 mph 1011.6mb 65f 62f
2:50am 11.5ft 10s 7s 18 20 mph 1011.6mb 65f 61f
1:50am 10.5ft 11s 7s 18 22 mph 1011.4mb 65f 62f
12:50am 11ft 11s 7s 20 27 mph 1011mb 65f 60f
Tue 09/01 11:50pm 10ft 11s 7s 27 31 mph 1010.5mb 65f 61f
10:50pm 10ft 11s 7s 20 25 mph 1010.6mb 65f 63f
9:50pm 9.5ft 10s 7s 20 25 mph 1010.8mb 65f 62f
8:50pm 9.5ft 11s 7s 20 25 mph 1010.9mb 65f 63f
7:50pm 9ft 11s 7s 18 25 mph 1011.2mb 65f 62f
6:50pm 9ft 10s 7s 20 25 mph 1011.2mb 65f 63f
5:50pm 9ft 13s 8s 20 25 mph 1011.1mb 65f 63f
4:50pm 8ft 12s 7s 18 20 mph 1011.2mb 65f 63f
3:50pm 9ft 11s 7s 16 20 mph 1011.6mb 65f 63f
2:50pm 9ft 11s 7s 20 22 mph 1011.6mb 65f 63f
1:50pm 8ft 11s 7s 20 25 mph 1011.6mb 65f 63f
12:50pm 8ft 11s 7s 18 22 mph 1011.8mb 65f 63f
11:50am 9ft 11s 7s 16 18 mph 1012.2mb 65f 63f
10:50am 9ft 11s 7s 16 18 mph 1012.5mb 65f 63f
9:50am 10.5ft 11s 8s 16 18 mph 1012.9mb 65f 63f
8:50am 9.5ft 11s 7s 18 22 mph 1013.1mb 65f 63f
7:50am 10ft 11s 8s 16 20 mph 1013.1mb 65f 63f
6:50am 11.5ft 11s 8s 16 20 mph 1013.1mb 65f 64f
5:50am 9.5ft 13s 7s 13 18 mph 1013mb 65f 64f
4:50am 10.5ft 11s 8s 13 16 mph 1012.9mb 65f 65f
3:50am 11ft 11s 8s 18 20 mph 1012.3mb 65f 65f
2:50am 10ft 11s 7s 18 20 mph 1012.3mb 65f 64f
1:50am 11ft 11s 8s 20 22 mph 1012mb 65f 64f
12:50am 10.5ft 11s 7s 22 27 mph 1011.9mb 65f 64f
Mon 08/31 11:50pm 10ft 11s 7s 20 25 mph 1011.9mb 65f 65f
10:50pm 10ft 11s 7s 22 27 mph 1012mb 65f 64f
9:50pm 11ft 11s 7s 22 27 mph 1012.3mb 65f 63f
8:50pm 10ft 11s 7s 25 29 mph 1012.5mb 65f 65f
7:50pm 11ft 11s 7s 22 27 mph 1012.8mb 65f 65f
6:50pm 11ft 10s 7s 20 25 mph 1012.8mb 65f 65f
5:50pm 11ft 9s 7s 22 25 mph 1012.8mb 65f 65f
4:50pm 12ft 11s 8s 20 25 mph 1013.1mb 65f 65f
3:50pm 12ft 10s 7s 20 25 mph 1013mb 65f 64f
2:50pm 13ft 10s 8s 22 27 mph 1012.8mb 65f 65f
1:50pm 12.5ft 11s 8s 22 27 mph 1012.6mb 65f 65f
12:50pm 12ft 10s 8s 20 25 mph 1012.5mb 65f 65f
11:50am 11ft 9s 7s 20 25 mph 1012.6mb 65f 65f
10:50am 11ft 11s 8s 22 29 mph 1012.6mb 65f 65f
9:50am 10.5ft 10s 8s 22 27 mph 1012.8mb 65f 65f
8:50am 10.5ft 11s 7s 22 27 mph 1012.9mb 65f 65f
7:50am 11ft 10s 7s 22 29 mph 1012.9mb 65f 65f
6:50am 11ft 11s 7s 20 25 mph 1013.1mb 65f 65f
5:50am 10ft 11s 7s 20 25 mph 1013mb 65f 65f
4:50am 10.5ft 11s 7s 22 29 mph 1012.8mb 65f 65f
3:50am 11.5ft 9s 7s 25 29 mph 1012.4mb 65f 65f
2:50am 11ft 9s 7s 22 29 mph 1012.2mb 66f 65f
1:50am 11ft 9s 7s 25 29 mph 1011.9mb 66f 66f
12:50am 11ft 10s 7s 25 29 mph 1011.8mb 66f 65f
Sun 08/30 11:50pm 11ft 11s 7s 25 31 mph 1011.8mb 66f 66f
10:50pm 11ft 10s 7s 22 27 mph 1011.5mb 66f 65f
9:50pm 11.5ft 11s 7s 25 27 mph 1011.5mb 66f 65f
8:50pm 13ft 11s 8s 25 29 mph 1011.2mb 66f 65f
7:50pm 11ft 11s 7s 22 27 mph 1011.3mb 66f 64f
6:50pm 12ft 11s 8s 25 29 mph 1011.3mb 65f 64f
5:50pm 12ft 11s 8s 22 27 mph 1011.2mb 65f 64f
4:50pm 12.5ft 12s 8s 20 22 mph 1010.9mb 65f 64f